CheckWX is a tool to help pilots better visualize weather data.  It is not intended as a substitute for an official pre-flight weather briefing.

08:38:36 UTC

KSYM METAR
Morehead-Rowan County Clyde A Thomas Regional Airport
Morehead, Kentucky, USA
Current

19 mins ago

KSYM 220820Z AUTO 00000KT 10SM SCT060 BKN070 OVC080 05/01 A3025 RMK AO2
Observed
Feb-22 @ 08:20 UTC
Visibility
10 SM
Flight Rules
VFR
Cloud Levels
  • Scattered at 6,000' AGL
  • Broken at 7,000' AGL
  • Overcast at 8,000' AGL
Temperature
C / 41°F
Dewpoint
C / 34°F
Humidity
76%
Altimeter
30.25" Hg
Pressure
1024.42 hPa
Previous

44 mins ago

KSYM 220755Z AUTO 11004KT 10SM OVC080 05/01 A3025 RMK AO2
Observed
Feb-22 @ 07:55 UTC
Wind
  • 110° at 4 KTS
Visibility
10 SM
Flight Rules
VFR
Cloud Levels
  • Overcast at 8,000' AGL
Temperature
C / 41°F
Dewpoint
C / 34°F
Humidity
76%
Altimeter
30.25" Hg
Pressure
1024.42 hPa
Previous

1 hour ago

KSYM 220735Z AUTO 00000KT 10SM BKN080 BKN100 OVC120 05/02 A3026 RMK AO2
Observed
Feb-22 @ 07:35 UTC
Visibility
10 SM
Flight Rules
VFR
Cloud Levels
  • Broken at 8,000' AGL
  • Broken at 10,000' AGL
  • Overcast at 12,000' AGL
Temperature
C / 41°F
Dewpoint
C / 36°F
Humidity
81%
Altimeter
30.26" Hg
Pressure
1024.72 hPa